Time;durP1;ratioP1;P1;durP2;ratioP2;P2;SDS_P1;SDS_P2;PMS_P1;PMS_P2;Temp;Humidity;BMP_temperature;BMP_pressure;BME280_temperature;BME280_humidity;BME280_pressure;Samples;Min_cycle;Max_cycle;Signal;HPM_P1;HPM_P2
2022/06/23 00:00:49;;;;;;;2.80;0.70;;;18.70;99.90;;;;;;5076492;28;20437;-81
2022/06/23 00:03:21;;;;;;;0.73;0.50;;;18.70;99.90;;;;;;5076084;28;20966;-81
2022/06/23 00:05:53;;;;;;;0.97;0.97;;;18.70;99.90;;;;;;5076035;28;20453;-81
2022/06/23 00:08:20;;;;;;;0.87;0.60;;;18.70;99.90;;;;;;5076737;28;20420;-81
2022/06/23 00:10:52;;;;;;;3.00;0.70;;;18.60;99.90;;;;;;5076250;28;20449;-81
2022/06/23 00:13:25;;;;;;;0.67;0.67;;;18.60;99.90;;;;;;5076011;28;20904;-81
2022/06/23 00:15:55;;;;;;;0.80;0.50;;;18.60;99.90;;;;;;5076038;28;21030;-81
2022/06/23 00:18:24;;;;;;;0.60;0.60;;;18.60;99.90;;;;;;5075936;28;20781;-81
2022/06/23 00:20:53;;;;;;;0.40;0.40;;;18.50;99.90;;;;;;5076129;28;20449;-81
2022/06/23 00:23:24;;;;;;;1.73;0.83;;;18.50;99.90;;;;;;5075825;28;20433;-81
2022/06/23 00:25:56;;;;;;;1.37;0.70;;;18.50;99.90;;;;;;5075868;28;20818;-81
2022/06/23 00:28:27;;;;;;;2.03;0.60;;;18.50;99.90;;;;;;5076851;28;20437;-81
2022/06/23 00:30:58;;;;;;;0.60;0.50;;;18.50;99.90;;;;;;5075977;28;20437;-81
2022/06/23 00:33:28;;;;;;;0.97;0.70;;;18.40;99.90;;;;;;5076106;28;20516;-81
2022/06/23 00:35:56;;;;;;;1.63;0.83;;;18.40;99.90;;;;;;5075747;28;20824;-81
2022/06/23 00:38:30;;;;;;;0.80;0.77;;;18.30;99.90;;;;;;5075469;28;20452;-81
2022/06/23 00:40:58;;;;;;;1.53;0.50;;;18.30;99.90;;;;;;5075754;28;20437;-81
2022/06/23 00:43:26;;;;;;;0.57;0.50;;;18.30;99.90;;;;;;5075685;28;20472;-81
2022/06/23 00:45:58;;;;;;;1.13;0.57;;;18.30;99.90;;;;;;5075470;28;20471;-81
2022/06/23 00:48:31;;;;;;;5.77;0.70;;;18.30;99.90;;;;;;5075606;28;20418;-81
2022/06/23 00:51:06;;;;;;;1.77;0.57;;;18.30;99.90;;;;;;5074679;28;20441;-81
2022/06/23 00:53:38;;;;;;;1.13;0.60;;;18.20;99.90;;;;;;5075572;28;20421;-81
2022/06/23 00:56:18;;;;;;;9.70;0.70;;;18.20;99.90;;;;;;5075350;28;20475;-81
2022/06/23 00:58:52;;;;;;;0.73;0.67;;;18.20;99.90;;;;;;5075478;28;20413;-81
2022/06/23 01:01:27;;;;;;;3.83;0.57;;;18.20;99.90;;;;;;5075420;28;20432;-81
2022/06/23 01:04:01;;;;;;;3.53;0.97;;;18.20;99.90;;;;;;5075988;28;20475;-81
2022/06/23 01:06:36;;;;;;;0.63;0.50;;;18.10;99.90;;;;;;5074843;28;20963;-81
2022/06/23 01:09:16;;;;;;;0.50;0.50;;;18.10;99.90;;;;;;5075026;28;20413;-81
2022/06/23 01:11:48;;;;;;;0.83;0.73;;;18.10;99.90;;;;;;5074894;28;20433;-81
2022/06/23 01:14:25;;;;;;;0.40;0.40;;;18.10;99.90;;;;;;5074753;28;20444;-81
2022/06/23 01:16:56;;;;;;;0.53;0.50;;;18.10;99.90;;;;;;5075104;28;20444;-81
2022/06/23 01:19:52;;;;;;;0.93;0.77;;;18.10;99.90;;;;;;5075114;28;20807;-81
2022/06/23 01:22:28;;;;;;;1.00;0.70;;;18.00;99.90;;;;;;5074617;28;20996;-81
2022/06/23 01:25:02;;;;;;;0.70;0.50;;;18.00;99.90;;;;;;5075288;28;20460;-80
2022/06/23 01:27:53;;;;;;;0.60;0.40;;;18.00;99.90;;;;;;5074673;28;20984;-80
2022/06/23 01:30:22;;;;;;;0.80;0.60;;;17.90;99.90;;;;;;5074657;28;20905;-80
2022/06/23 01:32:58;;;;;;;4.53;1.13;;;17.90;99.90;;;;;;5074797;28;20448;-81
2022/06/23 01:35:30;;;;;;;0.60;0.50;;;17.90;99.90;;;;;;5074167;28;20468;-80
2022/06/23 01:38:01;;;;;;;2.77;0.70;;;17.90;99.90;;;;;;5074427;28;20897;-80
2022/06/23 01:40:33;;;;;;;0.50;0.50;;;17.80;99.90;;;;;;5074716;28;20484;-81
2022/06/23 01:43:05;;;;;;;0.73;0.73;;;17.80;99.90;;;;;;5074856;28;20414;-80
2022/06/23 01:45:39;;;;;;;3.67;1.13;;;17.80;99.90;;;;;;5074445;28;20464;-81
2022/06/23 01:48:13;;;;;;;0.50;0.40;;;17.80;99.90;;;;;;5074433;28;20461;-81
2022/06/23 01:50:42;;;;;;;0.90;0.50;;;17.70;99.90;;;;;;5074377;28;20433;-81
2022/06/23 01:53:26;;;;;;;1.00;0.83;;;17.70;99.90;;;;;;5074355;28;20440;-81
2022/06/23 01:56:16;;;;;;;1.23;0.50;;;17.70;99.90;;;;;;5074421;28;20460;-81
2022/06/23 01:58:52;;;;;;;0.50;0.50;;;17.60;99.90;;;;;;5073962;28;20911;-81
2022/06/23 02:01:25;;;;;;;0.47;0.47;;;17.60;99.90;;;;;;5074123;28;20765;-81
2022/06/23 02:04:01;;;;;;;2.93;1.47;;;17.60;99.90;;;;;;5074177;28;20436;-81
2022/06/23 02:06:31;;;;;;;0.93;0.87;;;17.60;99.90;;;;;;5073786;28;20485;-81
2022/06/23 02:09:06;;;;;;;1.70;0.60;;;17.70;99.90;;;;;;5074039;28;20452;-80
2022/06/23 02:11:39;;;;;;;0.60;0.60;;;17.60;99.90;;;;;;5073791;28;20911;-80
2022/06/23 02:14:17;;;;;;;3.87;0.83;;;17.60;99.90;;;;;;5073957;28;20440;-81
2022/06/23 02:16:48;;;;;;;0.93;0.93;;;17.60;99.90;;;;;;5073861;28;20782;-80
2022/06/23 02:19:22;;;;;;;1.37;0.67;;;17.60;99.90;;;;;;5073621;28;20452;-81
2022/06/23 02:21:52;;;;;;;1.10;0.70;;;17.50;99.90;;;;;;5073992;28;20445;-81
2022/06/23 02:24:26;;;;;;;0.87;0.87;;;17.50;99.90;;;;;;5073782;28;20490;-81
2022/06/23 02:27:02;;;;;;;1.57;0.80;;;17.50;99.90;;;;;;5073737;28;20473;-81
2022/06/23 02:29:35;;;;;;;0.50;0.50;;;17.50;99.90;;;;;;5073776;28;20483;-81
2022/06/23 02:32:06;;;;;;;0.90;0.80;;;17.50;99.90;;;;;;5073566;28;20456;-81
2022/06/23 02:34:37;;;;;;;1.60;1.13;;;17.50;99.90;;;;;;5073640;28;20429;-80
2022/06/23 02:37:29;;;;;;;0.97;0.87;;;17.50;99.90;;;;;;5073264;28;20483;-81
2022/06/23 02:39:58;;;;;;;0.77;0.77;;;17.50;99.90;;;;;;5073135;28;20440;-81
2022/06/23 02:42:29;;;;;;;1.03;0.93;;;17.50;99.90;;;;;;5073554;28;20441;-81
2022/06/23 02:45:21;;;;;;;0.70;0.60;;;17.50;99.90;;;;;;5073470;28;20472;-81
2022/06/23 02:48:02;;;;;;;1.53;1.13;;;17.40;99.90;;;;;;5073143;28;20465;-80
2022/06/23 02:50:49;;;;;;;2.50;0.73;;;17.40;99.90;;;;;;5073204;28;20448;-80
2022/06/23 02:53:30;;;;;;;0.90;0.50;;;17.40;99.90;;;;;;5073171;28;20429;-81
2022/06/23 02:56:30;;;;;;;0.80;0.50;;;17.40;99.90;;;;;;5073152;28;20582;-80
2022/06/23 02:59:03;;;;;;;1.80;0.60;;;17.40;99.90;;;;;;5062291;28;20812;-83
2022/06/23 03:01:37;;;;;;;2.40;0.57;;;17.40;99.90;;;;;;5073094;28;20904;-83
2022/06/23 03:04:11;;;;;;;0.70;0.70;;;17.30;99.90;;;;;;5073367;28;20436;-83
2022/06/23 03:06:44;;;;;;;1.83;0.60;;;17.30;99.90;;;;;;5072850;28;20452;-83
2022/06/23 03:09:18;;;;;;;0.63;0.53;;;17.30;99.90;;;;;;5073322;28;20441;-83
2022/06/23 03:11:54;;;;;;;0.73;0.60;;;17.30;99.90;;;;;;5073310;28;20786;-83
2022/06/23 03:14:32;;;;;;;1.07;0.80;;;17.30;99.90;;;;;;5075840;28;20483;-83
2022/06/23 03:17:05;;;;;;;1.47;0.60;;;17.30;99.90;;;;;;5077517;28;20436;-81
2022/06/23 03:19:39;;;;;;;0.70;0.60;;;17.30;99.90;;;;;;5077013;28;20928;-81
2022/06/23 03:22:12;;;;;;;2.20;1.00;;;17.40;99.90;;;;;;5077342;28;20418;-81
2022/06/23 03:24:44;;;;;;;0.80;0.80;;;17.30;99.90;;;;;;5077163;28;20472;-80
2022/06/23 03:27:19;;;;;;;1.43;0.80;;;17.40;99.90;;;;;;5077146;28;20504;-80
2022/06/23 03:29:52;;;;;;;1.07;0.60;;;17.40;99.90;;;;;;5077166;28;20439;-81
2022/06/23 03:32:25;;;;;;;1.30;0.77;;;17.40;99.90;;;;;;5076771;28;20483;-80
2022/06/23 03:34:58;;;;;;;1.80;0.70;;;17.40;99.90;;;;;;5076701;28;21041;-81
2022/06/23 03:37:34;;;;;;;0.50;0.50;;;17.50;99.90;;;;;;5076605;28;20464;-81
2022/06/23 03:42:55;;;;;;;0.60;0.57;;;17.50;99.90;;;;;;5076625;28;20892;-81
2022/06/23 03:45:30;;;;;;;0.80;0.80;;;17.50;99.90;;;;;;5076490;28;20461;-81
2022/06/23 03:48:05;;;;;;;5.73;1.30;;;17.50;99.90;;;;;;5076396;28;20998;-81
2022/06/23 03:50:38;;;;;;;0.57;0.50;;;17.60;99.90;;;;;;5076397;28;20921;-81
2022/06/23 03:53:12;;;;;;;0.90;0.80;;;17.60;99.90;;;;;;5076915;28;20616;-81
2022/06/23 03:55:43;;;;;;;1.23;0.90;;;17.60;99.90;;;;;;5076547;28;20809;-81
2022/06/23 03:58:16;;;;;;;1.83;1.00;;;17.70;99.90;;;;;;5077033;28;20799;-81
2022/06/23 04:00:48;;;;;;;1.00;0.90;;;17.70;99.90;;;;;;5076280;28;20780;-81
2022/06/23 04:03:25;;;;;;;0.70;0.50;;;17.70;99.90;;;;;;5076520;28;20433;-81
2022/06/23 04:06:19;;;;;;;0.60;0.43;;;17.60;99.90;;;;;;5076654;28;20463;-81
2022/06/23 04:08:56;;;;;;;0.80;0.50;;;17.60;99.90;;;;;;5062207;28;20504;-81
2022/06/23 04:11:47;;;;;;;0.87;0.50;;;17.60;99.90;;;;;;5076060;28;20413;-81
2022/06/23 04:14:30;;;;;;;2.63;1.07;;;17.60;99.90;;;;;;5076280;28;20441;-81
2022/06/23 04:17:06;;;;;;;2.03;0.80;;;17.60;99.90;;;;;;5076247;28;20460;-81
2022/06/23 04:19:36;;;;;;;2.47;1.50;;;17.60;99.90;;;;;;5076237;28;20437;-80
2022/06/23 04:22:08;;;;;;;0.53;0.53;;;17.60;99.90;;;;;;5076372;28;20441;-81
2022/06/23 04:24:38;;;;;;;0.40;0.40;;;17.60;99.90;;;;;;5074737;28;20475;-80
2022/06/23 04:27:19;;;;;;;1.80;0.60;;;17.50;99.90;;;;;;5076961;28;20445;-81
2022/06/23 04:29:50;;;;;;;1.37;0.97;;;17.50;99.90;;;;;;5075762;28;20416;-81
2022/06/23 04:32:22;;;;;;;0.70;0.60;;;17.50;99.90;;;;;;5076370;28;20437;-80
2022/06/23 04:34:54;;;;;;;1.43;0.80;;;17.50;99.90;;;;;;5075824;28;20475;-81
2022/06/23 04:37:32;;;;;;;5.17;0.60;;;17.50;99.90;;;;;;5075673;28;20994;-81
2022/06/23 04:40:08;;;;;;;0.53;0.50;;;17.50;99.90;;;;;;5075801;28;20413;-81
2022/06/23 04:42:38;;;;;;;1.03;0.60;;;17.50;99.90;;;;;;5076220;28;20892;-81
2022/06/23 04:45:43;;;;;;;0.63;0.60;;;17.60;99.90;;;;;;5075730;28;20469;-81
2022/06/23 04:48:20;;;;;;;0.50;0.50;;;17.60;99.90;;;;;;5013590;28;20478;-81
2022/06/23 04:50:54;;;;;;;1.67;0.77;;;17.70;99.90;;;;;;5013548;28;20462;-82
2022/06/23 04:53:34;;;;;;;0.90;0.90;;;17.70;99.90;;;;;;5050144;28;20453;-82
2022/06/23 04:56:09;;;;;;;3.80;1.43;;;17.80;99.90;;;;;;5075270;28;20540;-82
2022/06/23 04:58:43;;;;;;;0.70;0.63;;;17.90;99.90;;;;;;5075559;28;20504;-82
2022/06/23 05:01:15;;;;;;;1.30;0.93;;;17.90;99.90;;;;;;5075471;28;20429;-82
2022/06/23 05:03:47;;;;;;;0.80;0.73;;;18.00;99.90;;;;;;5075427;28;20433;-81
2022/06/23 05:06:34;;;;;;;0.97;0.80;;;18.00;99.90;;;;;;5075184;28;20480;-82
2022/06/23 05:09:05;;;;;;;0.40;0.40;;;18.10;99.90;;;;;;5075228;28;20463;-82
2022/06/23 05:11:42;;;;;;;3.50;1.00;;;18.20;99.90;;;;;;5075513;28;20440;-82
2022/06/23 05:14:17;;;;;;;2.00;0.90;;;18.20;99.90;;;;;;5075183;28;20433;-82
2022/06/23 05:16:46;;;;;;;1.00;0.70;;;18.30;99.90;;;;;;5075183;28;20429;-82
2022/06/23 05:19:21;;;;;;;1.03;0.80;;;18.40;99.90;;;;;;5074997;28;20441;-82
2022/06/23 05:21:53;;;;;;;1.33;0.90;;;18.40;99.90;;;;;;5075005;28;20433;-82
2022/06/23 05:24:23;;;;;;;0.70;0.70;;;18.60;99.90;;;;;;5074944;28;20444;-82
2022/06/23 05:26:55;;;;;;;1.13;0.90;;;18.60;99.90;;;;;;5075117;28;20474;-82
2022/06/23 05:29:26;;;;;;;0.73;0.70;;;18.70;99.90;;;;;;5075379;28;20464;-82
2022/06/23 05:31:58;;;;;;;1.07;0.63;;;18.80;99.90;;;;;;5074609;28;20409;-82
2022/06/23 05:34:28;;;;;;;0.80;0.80;;;18.80;99.90;;;;;;5074762;28;20896;-82
2022/06/23 05:37:06;;;;;;;2.90;1.10;;;18.90;99.90;;;;;;5073859;28;20477;-82
2022/06/23 05:39:38;;;;;;;2.53;0.70;;;19.00;99.90;;;;;;5074409;28;20455;-82
2022/06/23 05:42:16;;;;;;;2.57;1.00;;;19.10;99.90;;;;;;5074529;28;20916;-82
2022/06/23 05:44:48;;;;;;;2.67;1.00;;;19.10;99.90;;;;;;5075021;28;20504;-82
2022/06/23 05:47:17;;;;;;;1.63;0.90;;;19.20;99.90;;;;;;5074623;28;20440;-81
2022/06/23 05:49:49;;;;;;;0.77;0.73;;;19.30;99.90;;;;;;5075430;28;20970;-81
2022/06/23 05:52:22;;;;;;;0.93;0.70;;;19.40;99.90;;;;;;5077090;28;20413;-81
2022/06/23 05:54:54;;;;;;;0.90;0.70;;;19.40;99.90;;;;;;5076847;28;20840;-81
2022/06/23 05:57:26;;;;;;;0.90;0.60;;;19.50;99.90;;;;;;5076239;28;20441;-81
2022/06/23 06:00:00;;;;;;;0.90;0.90;;;19.60;99.90;;;;;;5074864;28;20547;-81
2022/06/23 06:02:32;;;;;;;1.00;0.50;;;19.70;99.90;;;;;;5074909;28;20444;-82
2022/06/23 06:05:01;;;;;;;6.13;0.70;;;19.80;99.90;;;;;;5074329;28;20465;-82
2022/06/23 06:07:34;;;;;;;5.40;0.70;;;20.00;99.90;;;;;;5074031;28;20467;-82
2022/06/23 06:10:02;;;;;;;0.87;0.87;;;20.30;99.90;;;;;;5073957;28;20912;-81
2022/06/23 06:12:35;;;;;;;0.90;0.77;;;20.50;99.90;;;;;;5073759;28;20440;-82
2022/06/23 06:15:06;;;;;;;1.17;1.07;;;20.60;99.90;;;;;;5073833;28;20456;-82
2022/06/23 06:17:35;;;;;;;1.63;0.80;;;20.90;99.90;;;;;;5074008;28;20428;-82
2022/06/23 06:20:06;;;;;;;1.27;0.70;;;21.20;99.90;;;;;;5073843;28;20447;-82
2022/06/23 06:22:48;;;;;;;1.10;0.97;;;21.30;99.90;;;;;;5073614;28;20193;-83
2022/06/23 06:25:23;;;;;;;0.70;0.70;;;21.60;99.90;;;;;;5073642;28;20210;-83
2022/06/23 06:27:50;;;;;;;1.40;0.77;;;22.00;99.90;;;;;;5073724;28;20209;-83
2022/06/23 06:30:20;;;;;;;2.17;1.02;;;22.30;99.90;;;;;;5073718;28;20202;-82
2022/06/23 06:32:47;;;;;;;2.25;1.42;;;22.70;99.90;;;;;;5073389;28;20202;-83
2022/06/23 06:35:23;;;;;;;6.65;1.40;;;23.10;99.90;;;;;;5072983;28;20222;-83
2022/06/23 06:37:54;;;;;;;1.92;1.00;;;23.40;99.90;;;;;;5033439;28;20597;-82
2022/06/23 06:40:21;;;;;;;0.88;0.80;;;23.50;99.90;;;;;;5033727;28;20180;-83
2022/06/23 06:42:53;;;;;;;2.05;1.00;;;23.70;99.90;;;;;;5033620;28;20214;-82
2022/06/23 06:45:23;;;;;;;1.63;0.70;;;23.80;99.90;;;;;;5033275;28;20707;-82
2022/06/23 06:47:50;;;;;;;1.20;1.05;;;23.90;99.90;;;;;;5032722;28;20234;-83
2022/06/23 06:50:29;;;;;;;1.13;0.80;;;24.10;99.90;;;;;;5034212;28;20210;-82
2022/06/23 06:52:59;;;;;;;1.10;1.00;;;24.20;99.90;;;;;;5033342;28;20624;-83
2022/06/23 06:55:30;;;;;;;2.03;0.82;;;24.20;99.90;;;;;;5033406;28;20230;-83
2022/06/23 06:58:00;;;;;;;2.03;0.70;;;24.30;99.90;;;;;;5033181;28;20666;-83
2022/06/23 07:00:35;;;;;;;0.98;0.98;;;24.40;99.90;;;;;;5033468;28;20199;-83
2022/06/23 07:03:04;;;;;;;2.10;0.70;;;24.40;99.90;;;;;;5033398;28;20192;-82
2022/06/23 07:05:34;;;;;;;1.67;0.73;;;24.30;99.90;;;;;;5033328;28;20230;-82
2022/06/23 07:08:09;;;;;;;3.40;0.85;;;24.20;99.90;;;;;;5033314;28;20219;-82
2022/06/23 07:10:44;;;;;;;0.65;0.65;;;24.10;99.90;;;;;;5033259;28;20175;-83
2022/06/23 07:13:15;;;;;;;2.00;0.73;;;24.10;99.90;;;;;;5033309;28;20192;-82
2022/06/23 07:15:49;;;;;;;1.73;0.70;;;24.00;99.90;;;;;;5033034;28;20729;-82
2022/06/23 07:18:23;;;;;;;3.45;1.27;;;24.10;99.90;;;;;;5033388;28;20180;-80
2022/06/23 07:20:57;;;;;;;0.70;0.70;;;24.10;99.90;;;;;;5033422;28;20601;-82
2022/06/23 07:23:30;;;;;;;0.85;0.68;;;24.10;99.90;;;;;;5033256;28;20190;-82
2022/06/23 07:26:04;;;;;;;4.95;0.57;;;24.00;99.90;;;;;;5032847;28;20591;-82
2022/06/23 07:28:36;;;;;;;2.72;0.98;;;24.20;99.90;;;;;;5033130;28;20226;-82
2022/06/23 07:31:09;;;;;;;2.38;0.82;;;24.20;99.90;;;;;;5033211;28;20199;-82
2022/06/23 07:33:41;;;;;;;0.60;0.60;;;24.20;99.90;;;;;;5032857;28;20556;-82
2022/06/23 07:36:13;;;;;;;0.88;0.65;;;24.30;99.90;;;;;;5047412;28;20299;-82
2022/06/23 07:38:47;;;;;;;1.60;0.60;;;24.40;99.90;;;;;;5072989;28;20189;-83
2022/06/23 07:41:19;;;;;;;0.90;0.80;;;24.70;99.90;;;;;;5073062;28;20182;-84
2022/06/23 07:43:50;;;;;;;4.05;0.90;;;25.10;99.90;;;;;;5073004;28;20183;-84
2022/06/23 07:46:17;;;;;;;0.60;0.60;;;25.60;99.90;;;;;;5072924;28;20222;-84
2022/06/23 07:48:45;;;;;;;2.53;0.70;;;26.00;99.90;;;;;;5072752;28;20225;-84
2022/06/23 07:51:12;;;;;;;0.60;0.52;;;26.40;99.90;;;;;;5072544;28;20206;-84
2022/06/23 07:53:43;;;;;;;2.45;0.70;;;26.70;99.90;;;;;;5072873;28;20206;-84
2022/06/23 07:56:14;;;;;;;0.75;0.75;;;27.20;99.90;;;;;;5072608;28;20214;-85
2022/06/23 07:58:42;;;;;;;0.70;0.60;;;27.50;99.90;;;;;;5072810;28;20198;-85
2022/06/23 08:01:15;;;;;;;1.00;0.80;;;27.90;99.90;;;;;;5076584;28;20266;-84
2022/06/23 08:03:48;;;;;;;0.70;0.60;;;27.90;99.90;;;;;;5076070;28;20190;-84
2022/06/23 08:06:21;;;;;;;1.20;0.70;;;28.00;99.90;;;;;;5076242;28;20233;-83
2022/06/23 08:08:54;;;;;;;0.93;0.63;;;28.00;99.90;;;;;;5076407;28;20216;-84
2022/06/23 08:14:11;;;;;;;1.13;0.70;;;28.30;99.90;;;;;;5076385;28;20189;-84
2022/06/23 08:16:50;;;;;;;0.70;0.70;;;28.50;99.90;;;;;;5076435;28;20227;-82
2022/06/23 08:19:28;;;;;;;1.65;0.63;;;28.80;99.90;;;;;;5076224;28;20274;-81
2022/06/23 08:22:00;;;;;;;0.80;0.70;;;29.10;99.90;;;;;;5076879;28;20210;-80
2022/06/23 08:24:31;;;;;;;0.55;0.50;;;29.20;99.90;;;;;;5075782;28;20642;-82
2022/06/23 08:27:01;;;;;;;1.02;0.88;;;29.30;99.90;;;;;;5076759;28;20214;-82
2022/06/23 08:29:32;;;;;;;1.95;0.75;;;29.30;99.90;;;;;;5075998;28;20214;-83
2022/06/23 08:32:00;;;;;;;0.70;0.70;;;29.40;99.90;;;;;;5076032;28;20192;-83
2022/06/23 08:34:27;;;;;;;0.70;0.70;;;29.60;99.90;;;;;;5075815;28;20659;-83
2022/06/23 08:37:05;;;;;;;0.63;0.63;;;30.00;99.90;;;;;;5075574;28;20239;-83
2022/06/23 08:39:43;;;;;;;1.17;1.02;;;30.00;99.90;;;;;;5075808;28;20187;-94
2022/06/23 08:42:26;;;;;;;0.70;0.70;;;29.60;99.90;;;;;;5075498;28;20189;-83
2022/06/23 08:45:02;;;;;;;1.33;0.55;;;29.50;99.90;;;;;;5076489;28;20598;-83
2022/06/23 08:47:39;;;;;;;0.60;0.60;;;29.30;99.90;;;;;;5075456;28;20345;-83
2022/06/23 08:50:12;;;;;;;1.95;1.00;;;29.20;99.90;;;;;;5075667;28;20551;-83
2022/06/23 08:52:45;;;;;;;1.45;0.80;;;29.30;99.90;;;;;;5075276;28;20193;-83
2022/06/23 08:55:20;;;;;;;1.80;0.60;;;29.40;99.90;;;;;;5075511;28;20229;-83
2022/06/23 08:57:52;;;;;;;0.70;0.70;;;30.00;99.90;;;;;;5075784;28;20192;-83
2022/06/23 09:00:27;;;;;;;1.15;0.60;;;30.50;99.90;;;;;;5075628;28;20202;-83
2022/06/23 09:03:00;;;;;;;0.63;0.60;;;30.50;99.90;;;;;;5075148;28;20595;-84
2022/06/23 09:05:38;;;;;;;12.10;0.88;;;30.40;99.90;;;;;;5075301;28;20225;-82
2022/06/23 09:08:12;;;;;;;1.55;0.80;;;30.20;99.90;;;;;;5075026;28;20661;-83
2022/06/23 09:10:53;;;;;;;0.73;0.55;;;30.00;99.90;;;;;;5074490;28;20206;-83
2022/06/23 09:13:36;;;;;;;0.70;0.60;;;29.90;99.90;;;;;;5075902;28;20212;-83
2022/06/23 09:16:17;;;;;;;0.82;0.63;;;29.60;99.90;;;;;;5074821;28;20259;-83
2022/06/23 09:19:06;;;;;;;0.85;0.63;;;29.30;99.90;;;;;;5075167;28;20234;-83
2022/06/23 09:21:58;;;;;;;0.70;0.70;;;29.20;99.90;;;;;;5075010;28;20645;-83
2022/06/23 09:24:51;;;;;;;1.17;0.60;;;28.90;99.90;;;;;;5074854;28;20186;-83
2022/06/23 09:27:38;;;;;;;0.60;0.50;;;28.70;99.90;;;;;;5075078;28;20196;-82
2022/06/23 09:30:10;;;;;;;0.55;0.52;;;28.80;99.90;;;;;;5075022;28;20227;-84
2022/06/23 09:32:59;;;;;;;2.05;0.50;;;28.70;99.10;;;;;;5075010;28;20179;-84
2022/06/23 09:36:17;;;;;;;0.50;0.50;;;28.60;99.90;;;;;;5074402;28;20701;-83
2022/06/23 09:39:11;;;;;;;0.88;0.68;;;28.50;99.90;;;;;;5074961;28;20195;-83
2022/06/23 09:41:57;;;;;;;1.02;0.60;;;28.50;99.90;;;;;;5074730;28;20600;-83
2022/06/23 09:44:33;;;;;;;1.77;0.60;;;28.50;99.90;;;;;;5074540;28;20189;-80
2022/06/23 09:47:41;;;;;;;0.57;0.50;;;28.40;99.90;;;;;;5074837;28;20186;-82
2022/06/23 09:50:23;;;;;;;1.05;0.50;;;28.10;99.70;;;;;;5061452;28;20596;-82
2022/06/23 09:53:26;;;;;;;1.05;0.50;;;27.90;99.90;;;;;;5074444;28;20190;-82
2022/06/23 09:56:29;;;;;;;0.85;0.50;;;27.80;99.90;;;;;;5074004;28;20222;-81
2022/06/23 09:59:11;;;;;;;3.40;0.70;;;27.70;99.90;;;;;;5074314;28;20194;-81
2022/06/23 10:01:46;;;;;;;0.68;0.60;;;27.60;99.90;;;;;;5074267;28;20201;-79
2022/06/23 10:04:25;;;;;;;0.50;0.50;;;27.60;99.90;;;;;;5073955;28;20540;-82
2022/06/23 10:07:16;;;;;;;0.90;0.60;;;27.70;99.90;;;;;;5074016;28;20630;-82
2022/06/23 10:09:53;;;;;;;0.60;0.60;;;27.80;99.90;;;;;;5063494;28;20226;-83
2022/06/23 10:12:39;;;;;;;0.50;0.50;;;27.90;99.90;;;;;;5073975;28;20182;-81
2022/06/23 10:15:24;;;;;;;0.98;0.63;;;27.90;99.90;;;;;;5073704;28;20717;-81
2022/06/23 10:18:10;;;;;;;0.60;0.60;;;27.90;99.90;;;;;;5074186;28;20201;-81
2022/06/23 10:20:51;;;;;;;0.52;0.52;;;27.80;99.90;;;;;;5073976;28;20189;-83
2022/06/23 10:23:29;;;;;;;1.40;0.50;;;27.60;99.30;;;;;;5073858;28;20190;-81
2022/06/23 10:26:15;;;;;;;0.73;0.70;;;27.70;99.50;;;;;;5073688;28;20214;-83
2022/06/23 10:29:09;;;;;;;0.50;0.50;;;27.70;99.80;;;;;;5073943;28;20545;-82
2022/06/23 10:32:13;;;;;;;1.05;0.52;;;27.90;99.80;;;;;;5073986;28;20206;-82
2022/06/23 10:34:58;;;;;;;0.50;0.50;;;27.90;99.70;;;;;;5071726;28;20218;-82
2022/06/23 10:37:42;;;;;;;1.00;0.50;;;27.90;99.50;;;;;;5073659;28;20570;-80
2022/06/23 10:40:46;;;;;;;0.40;0.40;;;28.00;99.30;;;;;;5074105;28;20190;-82
2022/06/23 10:43:33;;;;;;;0.75;0.75;;;28.10;99.60;;;;;;5037500;28;20575;-82
2022/06/23 10:46:03;;;;;;;0.70;0.70;;;27.90;99.90;;;;;;5073543;28;20234;-82
2022/06/23 10:48:48;;;;;;;0.52;0.52;;;27.90;99.90;;;;;;5073545;28;20183;-85
2022/06/23 10:51:42;;;;;;;0.82;0.52;;;28.00;99.20;;;;;;5073580;28;20210;-84
2022/06/23 10:54:45;;;;;;;0.43;0.43;;;28.10;99.60;;;;;;5075391;28;20522;-86
2022/06/23 10:57:51;;;;;;;3.88;0.68;;;28.10;99.20;;;;;;5071720;28;20216;-84
2022/06/23 11:00:20;;;;;;;0.50;0.50;;;28.70;97.90;;;;;;5072411;28;20201;-85
2022/06/23 11:03:19;;;;;;;0.50;0.50;;;29.40;96.60;;;;;;5073109;28;20254;-83
2022/06/23 11:06:03;;;;;;;0.93;0.88;;;30.00;95.80;;;;;;5067924;28;20228;-85
2022/06/23 11:08:58;;;;;;;4.68;0.80;;;30.20;95.40;;;;;;5073368;28;20189;-84
2022/06/23 11:11:48;;;;;;;0.68;0.57;;;30.10;94.80;;;;;;5073081;28;20182;-85
2022/06/23 11:14:24;;;;;;;1.63;0.70;;;30.00;94.90;;;;;;5073669;28;20563;-84
2022/06/23 11:16:58;;;;;;;1.50;0.52;;;29.60;94.50;;;;;;5073476;28;20179;-84
2022/06/23 11:19:37;;;;;;;2.15;0.60;;;29.10;96.10;;;;;;5072978;28;20190;-84
2022/06/23 11:22:26;;;;;;;1.42;0.88;;;28.70;97.30;;;;;;5073285;28;20197;-84
2022/06/23 11:25:03;;;;;;;3.08;0.70;;;28.60;96.90;;;;;;5073073;28;20267;-84
2022/06/23 11:27:43;;;;;;;5.75;0.70;;;28.40;98.00;;;;;;5073484;28;20193;-85
2022/06/23 11:30:22;;;;;;;2.03;0.70;;;28.30;98.20;;;;;;5073136;28;20263;-84
2022/06/23 11:33:15;;;;;;;0.60;0.60;;;28.30;98.00;;;;;;5073131;28;20189;-84
2022/06/23 11:35:59;;;;;;;2.00;0.68;;;28.20;99.90;;;;;;5076648;28;20241;-85
2022/06/23 11:38:51;;;;;;;0.60;0.55;;;28.10;98.70;;;;;;5077045;28;20289;-83
2022/06/23 11:41:33;;;;;;;0.60;0.60;;;28.00;98.70;;;;;;5074561;28;20205;-84
2022/06/23 11:44:18;;;;;;;1.67;0.80;;;28.00;98.90;;;;;;5076946;28;20212;-83
2022/06/23 11:46:54;;;;;;;1.25;0.70;;;27.90;99.40;;;;;;5076670;28;20189;-83
2022/06/23 11:49:35;;;;;;;0.90;0.60;;;28.10;99.10;;;;;;5076455;28;20645;-84
2022/06/23 11:52:28;;;;;;;0.80;0.75;;;28.20;98.50;;;;;;5076803;28;20344;-84
2022/06/23 11:55:29;;;;;;;1.45;0.77;;;28.10;98.70;;;;;;5076879;28;20222;-85
2022/06/23 11:58:26;;;;;;;0.98;0.98;;;28.10;98.40;;;;;;5076685;28;20205;-84
2022/06/23 12:01:06;;;;;;;1.00;0.80;;;28.10;98.50;;;;;;5063566;28;20202;-84
2022/06/23 12:03:50;;;;;;;0.70;0.70;;;28.00;98.00;;;;;;5076270;28;20198;-83
2022/06/23 12:06:27;;;;;;;1.92;1.00;;;28.00;98.40;;;;;;5076444;28;20221;-84
2022/06/23 12:09:01;;;;;;;0.88;0.88;;;27.90;98.30;;;;;;5076485;28;20182;-83
2022/06/23 12:11:31;;;;;;;1.73;0.77;;;27.90;98.80;;;;;;5076336;28;20206;-83
2022/06/23 12:14:02;;;;;;;2.22;0.90;;;27.80;98.90;;;;;;5076100;28;20194;-83
2022/06/23 12:16:31;;;;;;;5.57;1.15;;;27.90;99.30;;;;;;5076372;28;20705;-84
2022/06/23 12:19:02;;;;;;;0.75;0.70;;;27.90;98.60;;;;;;5076960;28;20217;-84
2022/06/23 12:21:35;;;;;;;0.75;0.75;;;27.80;99.20;;;;;;5076010;28;20183;-84
2022/06/23 12:24:17;;;;;;;5.80;0.75;;;27.60;99.30;;;;;;5075872;28;20557;-83
2022/06/23 12:26:47;;;;;;;0.82;0.75;;;27.50;98.80;;;;;;5075917;28;20189;-85
2022/06/23 12:29:20;;;;;;;0.73;0.60;;;27.60;98.70;;;;;;5076140;28;20209;-86
2022/06/23 12:31:55;;;;;;;2.67;0.60;;;27.60;97.50;;;;;;5075741;28;20179;-85
2022/06/23 12:34:31;;;;;;;0.55;0.55;;;27.60;97.60;;;;;;5075957;28;20193;-85
2022/06/23 12:37:08;;;;;;;2.15;0.70;;;27.70;97.70;;;;;;5075664;28;20244;-85
2022/06/23 12:39:44;;;;;;;1.55;0.85;;;27.70;97.30;;;;;;5076032;28;20190;-85
2022/06/23 12:42:15;;;;;;;0.80;0.70;;;27.80;97.20;;;;;;5075911;28;20186;-83
2022/06/23 12:44:58;;;;;;;1.17;1.17;;;27.70;96.90;;;;;;5075721;28;20233;-85
2022/06/23 12:47:35;;;;;;;0.52;0.50;;;27.50;97.30;;;;;;5075309;28;20684;-85
2022/06/23 12:50:15;;;;;;;1.95;0.70;;;27.40;97.90;;;;;;5075486;28;20206;-83
2022/06/23 12:52:54;;;;;;;0.60;0.60;;;27.40;98.40;;;;;;5075908;28;20197;-82
2022/06/23 12:55:44;;;;;;;0.90;0.60;;;27.20;98.10;;;;;;5075559;28;20233;-81
2022/06/23 12:58:21;;;;;;;0.90;0.68;;;27.20;98.90;;;;;;5075316;28;20658;-81
2022/06/23 13:00:57;;;;;;;0.75;0.75;;;27.20;99.20;;;;;;5075311;28;20189;-82
2022/06/23 13:03:29;;;;;;;1.73;0.50;;;27.20;98.00;;;;;;5075473;28;20197;-82
2022/06/23 13:06:11;;;;;;;0.50;0.50;;;27.40;97.20;;;;;;5075636;28;20607;-81
2022/06/23 13:08:42;;;;;;;1.60;0.60;;;27.40;97.90;;;;;;5075284;28;20642;-80
2022/06/23 13:11:17;;;;;;;1.15;0.93;;;27.30;98.10;;;;;;5074932;28;20572;-81
2022/06/23 13:13:50;;;;;;;1.05;0.63;;;27.50;98.30;;;;;;5075388;28;20277;-80
2022/06/23 13:16:24;;;;;;;1.40;0.80;;;27.50;97.60;;;;;;5075418;28;20229;-81
2022/06/23 13:18:59;;;;;;;0.57;0.57;;;27.40;97.70;;;;;;5075710;28;20544;-82
2022/06/23 13:21:29;;;;;;;1.98;0.60;;;27.40;97.80;;;;;;5075931;28;20244;-81
2022/06/23 13:24:01;;;;;;;0.70;0.60;;;27.40;97.40;;;;;;5075088;28;20560;-80
2022/06/23 13:26:33;;;;;;;0.50;0.50;;;27.40;96.50;;;;;;5074980;28;20221;-80
2022/06/23 13:29:06;;;;;;;0.50;0.50;;;27.40;96.30;;;;;;5074957;28;20200;-80
2022/06/23 13:31:40;;;;;;;3.90;0.75;;;27.40;96.90;;;;;;5074635;28;20259;-81
2022/06/23 13:34:17;;;;;;;0.65;0.65;;;27.20;97.70;;;;;;5074591;28;20522;-81
2022/06/23 13:36:48;;;;;;;0.50;0.50;;;27.20;97.20;;;;;;5074438;28;20258;-80
2022/06/23 13:39:24;;;;;;;0.70;0.70;;;27.30;96.80;;;;;;5074769;28;20186;-81
2022/06/23 13:41:56;;;;;;;2.70;0.93;;;27.20;96.90;;;;;;5074831;28;20193;-81